sensor_id;sensor_type;location;lat;lon;timestamp;pressure;altitude;pressure_sealevel;temperature;humidity
17525;BME280;40431;52.198;9.902;2023-07-28T00:00:27;99491.78;;;17.83;100.00
17525;BME280;40431;52.198;9.902;2023-07-28T00:02:53;99495.19;;;17.85;100.00
17525;BME280;40431;52.198;9.902;2023-07-28T00:05:20;99498.63;;;17.88;100.00
17525;BME280;40431;52.198;9.902;2023-07-28T00:07:46;99496.91;;;17.86;100.00
17525;BME280;40431;52.198;9.902;2023-07-28T00:10:13;99498.81;;;17.86;100.00
17525;BME280;40431;52.198;9.902;2023-07-28T00:12:39;99507.88;;;17.86;100.00
17525;BME280;40431;52.198;9.902;2023-07-28T00:15:06;99504.47;;;17.84;100.00
17525;BME280;40431;52.198;9.902;2023-07-28T00:17:33;99508.22;;;17.83;100.00
17525;BME280;40431;52.198;9.902;2023-07-28T00:20:00;99510.59;;;17.78;100.00
17525;BME280;40431;52.198;9.902;2023-07-28T00:22:26;99507.88;;;17.86;100.00
17525;BME280;40431;52.198;9.902;2023-07-28T00:24:52;99513.06;;;17.90;100.00
17525;BME280;40431;52.198;9.902;2023-07-28T00:27:19;99512.88;;;17.91;100.00
17525;BME280;40431;52.198;9.902;2023-07-28T00:29:45;99513.06;;;17.90;100.00
17525;BME280;40431;52.198;9.902;2023-07-28T00:32:12;99517.50;;;17.91;100.00
17525;BME280;40431;52.198;9.902;2023-07-28T00:34:39;99512.75;;;17.93;100.00
17525;BME280;40431;52.198;9.902;2023-07-28T00:37:06;99509.59;;;17.88;100.00
17525;BME280;40431;52.198;9.902;2023-07-28T00:39:32;99510.31;;;17.90;100.00
17525;BME280;40431;52.198;9.902;2023-07-28T00:41:58;99513.38;;;17.86;100.00
17525;BME280;40431;52.198;9.902;2023-07-28T00:44:25;99515.44;;;17.84;100.00
17525;BME280;40431;52.198;9.902;2023-07-28T00:46:51;99512.53;;;17.86;100.00
17525;BME280;40431;52.198;9.902;2023-07-28T00:49:18;99522.94;;;17.82;100.00
17525;BME280;40431;52.198;9.902;2023-07-28T00:51:46;99521.22;;;17.81;100.00
17525;BME280;40431;52.198;9.902;2023-07-28T00:54:12;99524.47;;;17.77;100.00
17525;BME280;40431;52.198;9.902;2023-07-28T00:56:39;99515.38;;;17.76;100.00
17525;BME280;40431;52.198;9.902;2023-07-28T00:59:05;99525.03;;;17.80;100.00
17525;BME280;40431;52.198;9.902;2023-07-28T01:01:32;99521.94;;;17.83;100.00
17525;BME280;40431;52.198;9.902;2023-07-28T01:03:58;99526.41;;;17.84;100.00
17525;BME280;40431;52.198;9.902;2023-07-28T01:06:29;99518.34;;;17.83;100.00
17525;BME280;40431;52.198;9.902;2023-07-28T01:09:05;99514.56;;;17.84;100.00
17525;BME280;40431;52.198;9.902;2023-07-28T01:11:32;99511.13;;;17.82;100.00
17525;BME280;40431;52.198;9.902;2023-07-28T01:13:58;99506.84;;;17.79;100.00
17525;BME280;40431;52.198;9.902;2023-07-28T01:16:25;99501.72;;;17.84;100.00
17525;BME280;40431;52.198;9.902;2023-07-28T01:18:51;99512.00;;;17.82;100.00
17525;BME280;40431;52.198;9.902;2023-07-28T01:21:21;99504.47;;;17.84;100.00
17525;BME280;40431;52.198;9.902;2023-07-28T01:23:59;99516.81;;;17.89;100.00
17525;BME280;40431;52.198;9.902;2023-07-28T01:26:33;99506.16;;;17.85;100.00
17525;BME280;40431;52.198;9.902;2023-07-28T01:29:01;99506.88;;;17.88;100.00
17525;BME280;40431;52.198;9.902;2023-07-28T01:31:28;99502.75;;;17.83;100.00
17525;BME280;40431;52.198;9.902;2023-07-28T01:33:54;99496.41;;;17.83;100.00
17525;BME280;40431;52.198;9.902;2023-07-28T01:36:21;99500.69;;;17.85;100.00
17525;BME280;40431;52.198;9.902;2023-07-28T01:38:47;99498.97;;;17.84;100.00
17525;BME280;40431;52.198;9.902;2023-07-28T01:41:13;99500.69;;;17.85;100.00
17525;BME280;40431;52.198;9.902;2023-07-28T01:43:41;99503.41;;;17.77;100.00
17525;BME280;40431;52.198;9.902;2023-07-28T01:46:08;99498.44;;;17.81;100.00
17525;BME280;40431;52.198;9.902;2023-07-28T01:48:34;99500.66;;;17.77;100.00
17525;BME280;40431;52.198;9.902;2023-07-28T01:51:01;99500.16;;;17.82;100.00
17525;BME280;40431;52.198;9.902;2023-07-28T01:53:27;99497.59;;;17.80;100.00
17525;BME280;40431;52.198;9.902;2023-07-28T01:55:53;99493.81;;;17.81;100.00
17525;BME280;40431;52.198;9.902;2023-07-28T01:58:20;99494.16;;;17.78;100.00
17525;BME280;40431;52.198;9.902;2023-07-28T02:00:47;99494.69;;;17.82;100.00
17525;BME280;40431;52.198;9.902;2023-07-28T02:03:14;99496.56;;;17.81;100.00
17525;BME280;40431;52.198;9.902;2023-07-28T02:05:40;99499.28;;;17.81;100.00
17525;BME280;40431;52.198;9.902;2023-07-28T02:08:07;99503.22;;;17.79;100.00
17525;BME280;40431;52.198;9.902;2023-07-28T02:10:33;99502.91;;;17.82;100.00
17525;BME280;40431;52.198;9.902;2023-07-28T02:12:59;99504.47;;;17.84;100.00
17525;BME280;40431;52.198;9.902;2023-07-28T02:15:26;99502.75;;;17.83;100.00
17525;BME280;40431;52.198;9.902;2023-07-28T02:17:53;99513.00;;;17.81;100.00
17525;BME280;40431;52.198;9.902;2023-07-28T02:20:20;99509.75;;;17.78;100.00
17525;BME280;40431;52.198;9.902;2023-07-28T02:22:46;99500.28;;;17.72;100.00
17525;BME280;40431;52.198;9.902;2023-07-28T02:25:13;99508.22;;;17.75;100.00
17525;BME280;40431;52.198;9.902;2023-07-28T02:27:39;99505.78;;;17.72;100.00
17525;BME280;40431;52.198;9.902;2023-07-28T02:30:06;99503.38;;;17.69;100.00
17525;BME280;40431;52.198;9.902;2023-07-28T02:32:33;99502.34;;;17.70;100.00
17525;BME280;40431;52.198;9.902;2023-07-28T02:35:01;99506.13;;;17.69;100.00
17525;BME280;40431;52.198;9.902;2023-07-28T02:37:27;99503.38;;;17.69;100.00
17525;BME280;40431;52.198;9.902;2023-07-28T02:39:54;99509.56;;;17.71;100.00
17525;BME280;40431;52.198;9.902;2023-07-28T02:42:20;99506.81;;;17.71;100.00
17525;BME280;40431;52.198;9.902;2023-07-28T02:44:49;99508.50;;;17.72;100.00
17525;BME280;40431;52.198;9.902;2023-07-28T02:47:15;99510.59;;;17.70;100.00
17525;BME280;40431;52.198;9.902;2023-07-28T02:49:41;99514.34;;;17.69;100.00
17525;BME280;40431;52.198;9.902;2023-07-28T02:52:10;99512.44;;;17.69;100.00
17525;BME280;40431;52.198;9.902;2023-07-28T02:54:36;99507.50;;;17.73;100.00
17525;BME280;40431;52.198;9.902;2023-07-28T02:57:03;99522.22;;;17.72;100.00
17525;BME280;40431;52.198;9.902;2023-07-28T02:59:29;99523.94;;;17.73;100.00
17525;BME280;40431;52.198;9.902;2023-07-28T03:01:55;99522.75;;;17.76;100.00
17525;BME280;40431;52.198;9.902;2023-07-28T03:04:22;99530.13;;;17.75;100.00
17525;BME280;40431;52.198;9.902;2023-07-28T03:06:49;99527.72;;;17.72;100.00
17525;BME280;40431;52.198;9.902;2023-07-28T03:09:16;99524.66;;;17.75;100.00
17525;BME280;40431;52.198;9.902;2023-07-28T03:11:43;99528.25;;;17.76;100.00
17525;BME280;40431;52.198;9.902;2023-07-28T03:14:09;99533.38;;;17.79;100.00
17525;BME280;40431;52.198;9.902;2023-07-28T03:16:38;99527.91;;;17.79;100.00
17525;BME280;40431;52.198;9.902;2023-07-28T03:19:04;99525.34;;;17.77;100.00
17525;BME280;40431;52.198;9.902;2023-07-28T03:21:30;99537.47;;;17.75;100.00
17525;BME280;40431;52.198;9.902;2023-07-28T03:23:57;99537.19;;;17.78;100.00
17525;BME280;40431;52.198;9.902;2023-07-28T03:26:25;99528.44;;;17.82;100.00
17525;BME280;40431;52.198;9.902;2023-07-28T03:28:51;99530.81;;;17.77;100.00
17525;BME280;40431;52.198;9.902;2023-07-28T03:31:18;99544.03;;;17.74;100.00
17525;BME280;40431;52.198;9.902;2023-07-28T03:33:44;99536.81;;;17.73;100.00
17525;BME280;40431;52.198;9.902;2023-07-28T03:36:10;99547.44;;;17.76;100.00
17525;BME280;40431;52.198;9.902;2023-07-28T03:38:37;99544.03;;;17.74;100.00
17525;BME280;40431;52.198;9.902;2023-07-28T03:41:03;99542.13;;;17.74;100.00
17525;BME280;40431;52.198;9.902;2023-07-28T03:43:33;99540.06;;;17.76;100.00
17525;BME280;40431;52.198;9.902;2023-07-28T03:46:00;99544.03;;;17.74;100.00
17525;BME280;40431;52.198;9.902;2023-07-28T03:48:26;99552.75;;;17.77;100.00
17525;BME280;40431;52.198;9.902;2023-07-28T03:50:52;99551.03;;;17.76;100.00
17525;BME280;40431;52.198;9.902;2023-07-28T03:53:19;99551.91;;;17.77;100.00
17525;BME280;40431;52.198;9.902;2023-07-28T03:55:45;99550.00;;;17.77;100.00
17525;BME280;40431;52.198;9.902;2023-07-28T03:58:11;99550.72;;;17.79;100.00
17525;BME280;40431;52.198;9.902;2023-07-28T04:00:39;99541.78;;;17.77;100.00
17525;BME280;40431;52.198;9.902;2023-07-28T04:03:05;99551.19;;;17.75;100.00
17525;BME280;40431;52.198;9.902;2023-07-28T04:05:32;99549.69;;;17.80;100.00
17525;BME280;40431;52.198;9.902;2023-07-28T04:07:58;99551.03;;;17.76;100.00
17525;BME280;40431;52.198;9.902;2023-07-28T04:10:24;99542.50;;;17.79;100.00
17525;BME280;40431;52.198;9.902;2023-07-28T04:12:51;99541.59;;;17.79;100.00
17525;BME280;40431;52.198;9.902;2023-07-28T04:15:17;99546.25;;;17.78;100.00
17525;BME280;40431;52.198;9.902;2023-07-28T04:17:45;99556.75;;;17.83;100.00
17525;BME280;40431;52.198;9.902;2023-07-28T04:20:12;99551.09;;;17.84;100.00
17525;BME280;40431;52.198;9.902;2023-07-28T04:22:38;99550.03;;;17.85;100.00
17525;BME280;40431;52.198;9.902;2023-07-28T04:25:05;99564.44;;;17.88;100.00
17525;BME280;40431;52.198;9.902;2023-07-28T04:27:32;99559.63;;;17.81;100.00
17525;BME280;40431;52.198;9.902;2023-07-28T04:29:58;99558.59;;;17.82;100.00
17525;BME280;40431;52.198;9.902;2023-07-28T04:32:25;99551.38;;;17.81;100.00
17525;BME280;40431;52.198;9.902;2023-07-28T04:34:52;99559.94;;;17.78;100.00
17525;BME280;40431;52.198;9.902;2023-07-28T04:37:19;99563.91;;;17.84;100.00
17525;BME280;40431;52.198;9.902;2023-07-28T04:39:45;99556.41;;;17.86;100.00
17525;BME280;40431;52.198;9.902;2023-07-28T04:42:12;99550.75;;;17.88;100.00
17525;BME280;40431;52.198;9.902;2023-07-28T04:44:38;99554.19;;;17.90;100.00
17525;BME280;40431;52.198;9.902;2023-07-28T04:47:06;99550.56;;;17.89;100.00
17525;BME280;40431;52.198;9.902;2023-07-28T04:49:32;99550.91;;;17.86;100.00
17525;BME280;40431;52.198;9.902;2023-07-28T04:52:00;99563.44;;;17.89;100.00
17525;BME280;40431;52.198;9.902;2023-07-28T04:54:26;99568.22;;;17.86;100.00
17525;BME280;40431;52.198;9.902;2023-07-28T04:56:53;99569.09;;;17.87;100.00
17525;BME280;40431;52.198;9.902;2023-07-28T04:59:19;99572.50;;;17.89;100.00
17525;BME280;40431;52.198;9.902;2023-07-28T05:01:45;99578.50;;;17.84;100.00
17525;BME280;40431;52.198;9.902;2023-07-28T05:04:12;99577.44;;;17.85;100.00
17525;BME280;40431;52.198;9.902;2023-07-28T05:06:38;99572.97;;;17.76;100.00
17525;BME280;40431;52.198;9.902;2023-07-28T05:09:06;99585.44;;;17.70;100.00
17525;BME280;40431;52.198;9.902;2023-07-28T05:11:32;99585.44;;;17.70;100.00
17525;BME280;40431;52.198;9.902;2023-07-28T05:13:58;99586.31;;;17.71;100.00
17525;BME280;40431;52.198;9.902;2023-07-28T05:16:25;99589.00;;;17.63;100.00
17525;BME280;40431;52.198;9.902;2023-07-28T05:18:51;99595.03;;;17.66;100.00
17525;BME280;40431;52.198;9.902;2023-07-28T05:21:18;99596.91;;;17.66;100.00
17525;BME280;40431;52.198;9.902;2023-07-28T05:23:44;99598.94;;;17.64;100.00
17525;BME280;40431;52.198;9.902;2023-07-28T05:26:12;99598.94;;;17.64;100.00
17525;BME280;40431;52.198;9.902;2023-07-28T05:28:38;99597.59;;;17.68;100.00
17525;BME280;40431;52.198;9.902;2023-07-28T05:31:05;99594.47;;;17.63;100.00
17525;BME280;40431;52.198;9.902;2023-07-28T05:33:31;99602.72;;;17.63;100.00
17525;BME280;40431;52.198;9.902;2023-07-28T05:36:02;99605.66;;;17.69;100.00
17525;BME280;40431;52.198;9.902;2023-07-28T05:38:28;99605.84;;;17.76;100.00
17525;BME280;40431;52.198;9.902;2023-07-28T05:40:58;99604.16;;;17.75;100.00
17525;BME280;40431;52.198;9.902;2023-07-28T05:43:27;99615.13;;;17.75;100.00
17525;BME280;40431;52.198;9.902;2023-07-28T05:45:54;99616.34;;;17.81;100.00
17525;BME280;40431;52.198;9.902;2023-07-28T05:48:21;99616.88;;;17.84;100.00
17525;BME280;40431;52.198;9.902;2023-07-28T05:50:47;99619.81;;;17.83;100.00
17525;BME280;40431;52.198;9.902;2023-07-28T05:53:14;99616.72;;;17.86;100.00
17525;BME280;40431;52.198;9.902;2023-07-28T05:55:40;99626.66;;;17.87;100.00
17525;BME280;40431;52.198;9.902;2023-07-28T05:58:06;99616.56;;;17.88;100.00
17525;BME280;40431;52.198;9.902;2023-07-28T06:00:34;99612.78;;;17.89;100.00
17525;BME280;40431;52.198;9.902;2023-07-28T06:03:02;99620.38;;;17.95;100.00
17525;BME280;40431;52.198;9.902;2023-07-28T06:05:28;99623.19;;;18.03;100.00
17525;BME280;40431;52.198;9.902;2023-07-28T06:07:55;99624.41;;;18.09;100.00
17525;BME280;40431;52.198;9.902;2023-07-28T06:10:21;99613.97;;;18.12;100.00
17525;BME280;40431;52.198;9.902;2023-07-28T06:12:48;99616.19;;;18.17;100.00
17525;BME280;40431;52.198;9.902;2023-07-28T06:15:14;99624.63;;;18.24;100.00
17525;BME280;40431;52.198;9.902;2023-07-28T06:17:42;99622.75;;;18.32;100.00
17525;BME280;40431;52.198;9.902;2023-07-28T06:20:09;99627.06;;;18.35;100.00
17525;BME280;40431;52.198;9.902;2023-07-28T06:22:36;99626.38;;;18.41;100.00
17525;BME280;40431;52.198;9.902;2023-07-28T06:25:02;99631.19;;;18.47;100.00
17525;BME280;40431;52.198;9.902;2023-07-28T06:27:29;99622.63;;;18.50;100.00
17525;BME280;40431;52.198;9.902;2023-07-28T06:29:55;99628.81;;;18.52;100.00
17525;BME280;40431;52.198;9.902;2023-07-28T06:32:22;99641.19;;;18.57;100.00
17525;BME280;40431;52.198;9.902;2023-07-28T06:34:50;99640.84;;;18.60;100.00
17525;BME280;40431;52.198;9.902;2023-07-28T06:37:16;99642.56;;;18.61;100.00
17525;BME280;40431;52.198;9.902;2023-07-28T06:39:43;99639.44;;;18.56;100.00
17525;BME280;40431;52.198;9.902;2023-07-28T06:42:10;99641.00;;;18.58;100.00
17525;BME280;40431;52.198;9.902;2023-07-28T06:44:36;99648.72;;;18.55;100.00
17525;BME280;40431;52.198;9.902;2023-07-28T06:47:03;99648.41;;;18.58;100.00
17525;BME280;40431;52.198;9.902;2023-07-28T06:49:30;99652.16;;;18.48;100.00
17525;BME280;40431;52.198;9.902;2023-07-28T06:51:57;99651.25;;;18.48;100.00
17525;BME280;40431;52.198;9.902;2023-07-28T06:54:24;99654.72;;;18.50;100.00
17525;BME280;40431;52.198;9.902;2023-07-28T06:56:50;99664.16;;;18.47;100.00
17525;BME280;40431;52.198;9.902;2023-07-28T06:59:16;99663.44;;;18.45;100.00
17525;BME280;40431;52.198;9.902;2023-07-28T07:01:43;99665.53;;;18.51;100.00
17525;BME280;40431;52.198;9.902;2023-07-28T07:04:09;99677.53;;;18.50;100.00
17525;BME280;40431;52.198;9.902;2023-07-28T07:06:36;99678.06;;;18.54;100.00
17525;BME280;40431;52.198;9.902;2023-07-28T07:09:04;99679.78;;;18.55;100.00
17525;BME280;40431;52.198;9.902;2023-07-28T07:11:31;99679.28;;;18.60;100.00
17525;BME280;40431;52.198;9.902;2023-07-28T07:13:57;99683.38;;;18.56;100.00
17525;BME280;40431;52.198;9.902;2023-07-28T07:16:23;99683.06;;;18.59;100.00
17525;BME280;40431;52.198;9.902;2023-07-28T07:18:51;99697.13;;;18.64;100.00
17525;BME280;40431;52.198;9.902;2023-07-28T07:21:17;99690.44;;;18.66;100.00
17525;BME280;40431;52.198;9.902;2023-07-28T07:23:44;99695.09;;;18.66;100.00
17525;BME280;40431;52.198;9.902;2023-07-28T07:26:11;99701.78;;;18.72;100.00
17525;BME280;40431;52.198;9.902;2023-07-28T07:28:38;99701.63;;;18.73;100.00
17525;BME280;40431;52.198;9.902;2023-07-28T07:31:04;99695.47;;;18.79;100.00
17525;BME280;40431;52.198;9.902;2023-07-28T07:33:37;99699.25;;;18.86;100.00
17525;BME280;40431;52.198;9.902;2023-07-28T07:36:04;99705.28;;;18.90;100.00
17525;BME280;40431;52.198;9.902;2023-07-28T07:38:30;99705.47;;;18.89;100.00
17525;BME280;40431;52.198;9.902;2023-07-28T07:40:56;99700.50;;;18.92;100.00
17525;BME280;40431;52.198;9.902;2023-07-28T07:43:25;99702.53;;;18.90;100.00
17525;BME280;40431;52.198;9.902;2023-07-28T07:45:51;99699.13;;;18.96;100.00
17525;BME280;40431;52.198;9.902;2023-07-28T07:48:19;99703.09;;;19.02;100.00
17525;BME280;40431;52.198;9.902;2023-07-28T07:50:46;99699.31;;;19.11;100.00
17525;BME280;40431;52.198;9.902;2023-07-28T07:53:12;99708.63;;;19.27;100.00
17525;BME280;40431;52.198;9.902;2023-07-28T07:55:38;99704.66;;;19.38;100.00
17525;BME280;40431;52.198;9.902;2023-07-28T07:58:05;99698.28;;;19.53;100.00
17525;BME280;40431;52.198;9.902;2023-07-28T08:00:32;99696.53;;;19.69;100.00
17525;BME280;40431;52.198;9.902;2023-07-28T08:02:59;99704.81;;;19.85;100.00
17525;BME280;40431;52.198;9.902;2023-07-28T08:05:25;99695.50;;;19.95;100.00
17525;BME280;40431;52.198;9.902;2023-07-28T08:07:53;99705.81;;;20.01;100.00
17525;BME280;40431;52.198;9.902;2023-07-28T08:10:20;99706.13;;;20.06;100.00
17525;BME280;40431;52.198;9.902;2023-07-28T08:12:47;99710.91;;;20.21;100.00
17525;BME280;40431;52.198;9.902;2023-07-28T08:15:14;99707.06;;;20.38;100.00
17525;BME280;40431;52.198;9.902;2023-07-28T08:17:42;99711.16;;;20.50;100.00
17525;BME280;40431;52.198;9.902;2023-07-28T08:20:08;99716.94;;;20.64;100.00
17525;BME280;40431;52.198;9.902;2023-07-28T08:22:35;99714.00;;;20.65;100.00
17525;BME280;40431;52.198;9.902;2023-07-28T08:25:02;99703.47;;;20.77;100.00
17525;BME280;40431;52.198;9.902;2023-07-28T08:27:29;99712.06;;;20.82;100.00
17525;BME280;40431;52.198;9.902;2023-07-28T08:29:55;99710.28;;;20.90;100.00
17525;BME280;40431;52.198;9.902;2023-07-28T08:32:22;99718.00;;;20.94;100.00
17525;BME280;40431;52.198;9.902;2023-07-28T08:34:50;99709.50;;;21.04;100.00
17525;BME280;40431;52.198;9.902;2023-07-28T08:37:16;99711.78;;;21.24;100.00
17525;BME280;40431;52.198;9.902;2023-07-28T08:39:42;99717.22;;;21.32;100.00
17525;BME280;40431;52.198;9.902;2023-07-28T08:42:09;99715.53;;;21.46;100.00
17525;BME280;40431;52.198;9.902;2023-07-28T08:44:35;99715.25;;;21.64;100.00
17525;BME280;40431;52.198;9.902;2023-07-28T08:47:04;99721.97;;;21.84;100.00
17525;BME280;40431;52.198;9.902;2023-07-28T08:49:30;99721.00;;;21.92;100.00
17525;BME280;40431;52.198;9.902;2023-07-28T08:52:00;99722.72;;;21.93;100.00
17525;BME280;40431;52.198;9.902;2023-07-28T08:54:26;99727.75;;;21.90;100.00
17525;BME280;40431;52.198;9.902;2023-07-28T08:56:53;99732.16;;;21.99;100.00
17525;BME280;40431;52.198;9.902;2023-07-28T08:59:21;99727.13;;;22.02;100.00
17525;BME280;40431;52.198;9.902;2023-07-28T09:01:49;99721.22;;;22.06;100.00
17525;BME280;40431;52.198;9.902;2023-07-28T09:04:16;99723.88;;;21.99;100.00
17525;BME280;40431;52.198;9.902;2023-07-28T09:06:44;99725.34;;;22.10;100.00
17525;BME280;40431;52.198;9.902;2023-07-28T09:09:12;99724.16;;;22.04;100.00
17525;BME280;40431;52.198;9.902;2023-07-28T09:11:44;99730.66;;;22.11;100.00
17525;BME280;40431;52.198;9.902;2023-07-28T09:14:11;99724.06;;;21.97;98.51
17525;BME280;40431;52.198;9.902;2023-07-28T09:16:38;99725.69;;;21.92;100.00
17525;BME280;40431;52.198;9.902;2023-07-28T09:19:05;99730.53;;;21.90;100.00
17525;BME280;40431;52.198;9.902;2023-07-28T09:21:32;99731.19;;;21.92;100.00
17525;BME280;40431;52.198;9.902;2023-07-28T09:23:59;99735.31;;;21.96;100.00
17525;BME280;40431;52.198;9.902;2023-07-28T09:26:36;99733.56;;;21.95;100.00
17525;BME280;40431;52.198;9.902;2023-07-28T09:29:10;99739.28;;;21.93;100.00
17525;BME280;40431;52.198;9.902;2023-07-28T09:31:37;99733.38;;;21.96;100.00
17525;BME280;40431;52.198;9.902;2023-07-28T09:34:06;99738.91;;;21.96;100.00
17525;BME280;40431;52.198;9.902;2023-07-28T09:36:34;99734.16;;;22.05;100.00
17525;BME280;40431;52.198;9.902;2023-07-28T09:39:01;99740.19;;;22.24;100.00
17525;BME280;40431;52.198;9.902;2023-07-28T09:41:29;99738.75;;;22.28;100.00
17525;BME280;40431;52.198;9.902;2023-07-28T09:43:57;99749.22;;;22.17;99.27
17525;BME280;40431;52.198;9.902;2023-07-28T09:46:24;99743.69;;;22.02;99.04
17525;BME280;40431;52.198;9.902;2023-07-28T09:48:56;99744.16;;;22.06;100.00
17525;BME280;40431;52.198;9.902;2023-07-28T09:51:27;99738.16;;;22.17;100.00
17525;BME280;40431;52.198;9.902;2023-07-28T09:53:58;99741.72;;;22.11;96.88
17525;BME280;40431;52.198;9.902;2023-07-28T09:56:29;99733.44;;;22.11;98.12
17525;BME280;40431;52.198;9.902;2023-07-28T09:58:58;99745.59;;;22.32;98.64
17525;BME280;40431;52.198;9.902;2023-07-28T10:01:25;99741.25;;;22.38;96.56
17525;BME280;40431;52.198;9.902;2023-07-28T10:03:52;99738.31;;;22.39;97.77
17525;BME280;40431;52.198;9.902;2023-07-28T10:06:19;99725.16;;;22.41;97.66
17525;BME280;40431;52.198;9.902;2023-07-28T10:08:47;99729.16;;;22.54;96.01
17525;BME280;40431;52.198;9.902;2023-07-28T10:11:15;99736.97;;;22.65;95.49
17525;BME280;40431;52.198;9.902;2023-07-28T10:13:42;99746.94;;;22.81;94.29
17525;BME280;40431;52.198;9.902;2023-07-28T10:16:10;99744.94;;;22.90;95.03
17525;BME280;40431;52.198;9.902;2023-07-28T10:18:39;99736.34;;;22.84;92.07
17525;BME280;40431;52.198;9.902;2023-07-28T10:21:08;99746.69;;;22.97;92.55
17525;BME280;40431;52.198;9.902;2023-07-28T10:23:38;99742.97;;;23.05;91.31
17525;BME280;40431;52.198;9.902;2023-07-28T10:26:05;99745.63;;;23.13;91.68
17525;BME280;40431;52.198;9.902;2023-07-28T10:28:32;99747.41;;;23.21;91.19
17525;BME280;40431;52.198;9.902;2023-07-28T10:31:04;99764.22;;;23.20;90.57
17525;BME280;40431;52.198;9.902;2023-07-28T10:33:34;99763.72;;;23.31;91.52
17525;BME280;40431;52.198;9.902;2023-07-28T10:36:12;99752.97;;;23.43;89.92
17525;BME280;40431;52.198;9.902;2023-07-28T10:38:40;99756.19;;;23.46;87.30
17525;BME280;40431;52.198;9.902;2023-07-28T10:41:14;99760.03;;;23.45;88.03
17525;BME280;40431;52.198;9.902;2023-07-28T10:43:41;99755.28;;;23.61;86.34
17525;BME280;40431;52.198;9.902;2023-07-28T10:46:09;99756.91;;;23.77;85.10
17525;BME280;40431;52.198;9.902;2023-07-28T10:48:41;99754.34;;;23.75;86.20
17525;BME280;40431;52.198;9.902;2023-07-28T10:51:08;99759.97;;;23.89;87.28
17525;BME280;40431;52.198;9.902;2023-07-28T10:53:34;99760.59;;;23.84;86.57
17525;BME280;40431;52.198;9.902;2023-07-28T10:56:02;99758.47;;;23.86;87.76
17525;BME280;40431;52.198;9.902;2023-07-28T10:58:30;99763.03;;;23.94;86.77
17525;BME280;40431;52.198;9.902;2023-07-28T11:00:57;99761.00;;;24.03;87.32
17525;BME280;40431;52.198;9.902;2023-07-28T11:03:23;99753.38;;;24.11;83.99
17525;BME280;40431;52.198;9.902;2023-07-28T11:05:51;99764.25;;;24.13;83.20
17525;BME280;40431;52.198;9.902;2023-07-28T11:08:17;99761.94;;;24.16;83.80
17525;BME280;40431;52.198;9.902;2023-07-28T11:10:44;99761.53;;;24.20;84.23
17525;BME280;40431;52.198;9.902;2023-07-28T11:13:11;99757.69;;;24.21;85.10
17525;BME280;40431;52.198;9.902;2023-07-28T11:15:37;99754.47;;;24.17;84.68
17525;BME280;40431;52.198;9.902;2023-07-28T11:18:04;99752.47;;;24.04;85.61
17525;BME280;40431;52.198;9.902;2023-07-28T11:20:32;99754.16;;;24.05;85.65
17525;BME280;40431;52.198;9.902;2023-07-28T11:23:02;99753.91;;;23.93;81.95
17525;BME280;40431;52.198;9.902;2023-07-28T11:25:30;99759.03;;;23.75;82.55
17525;BME280;40431;52.198;9.902;2023-07-28T11:27:57;99748.53;;;23.70;82.60
17525;BME280;40431;52.198;9.902;2023-07-28T11:30:24;99753.81;;;23.65;84.60
17525;BME280;40431;52.198;9.902;2023-07-28T11:32:51;99755.06;;;23.62;83.54
17525;BME280;40431;52.198;9.902;2023-07-28T11:35:19;99753.28;;;23.55;84.64
17525;BME280;40431;52.198;9.902;2023-07-28T11:37:48;99745.78;;;23.48;85.45
17525;BME280;40431;52.198;9.902;2023-07-28T11:40:20;99753.28;;;23.55;87.20
17525;BME280;40431;52.198;9.902;2023-07-28T11:42:49;99755.00;;;23.77;86.40
17525;BME280;40431;52.198;9.902;2023-07-28T11:45:17;99756.00;;;23.91;84.98
17525;BME280;40431;52.198;9.902;2023-07-28T11:47:52;99752.81;;;23.94;84.81
17525;BME280;40431;52.198;9.902;2023-07-28T11:50:22;99754.44;;;23.89;84.64
17525;BME280;40431;52.198;9.902;2023-07-28T11:52:49;99760.78;;;23.82;85.18
17525;BME280;40431;52.198;9.902;2023-07-28T11:55:15;99744.06;;;23.69;83.65
17525;BME280;40431;52.198;9.902;2023-07-28T11:57:43;99757.97;;;23.54;84.92
17525;BME280;40431;52.198;9.902;2023-07-28T12:00:11;99755.69;;;23.58;87.55
17525;BME280;40431;52.198;9.902;2023-07-28T12:02:41;99764.56;;;23.75;86.98
17525;BME280;40431;52.198;9.902;2023-07-28T12:05:12;99759.72;;;23.83;85.31
17525;BME280;40431;52.198;9.902;2023-07-28T12:07:38;99755.63;;;24.01;88.77
17525;BME280;40431;52.198;9.902;2023-07-28T12:10:06;99759.88;;;24.25;84.67
17525;BME280;40431;52.198;9.902;2023-07-28T12:12:40;99749.59;;;24.19;82.93
17525;BME280;40431;52.198;9.902;2023-07-28T12:15:23;99762.03;;;24.30;82.96
17525;BME280;40431;52.198;9.902;2023-07-28T12:18:03;99760.84;;;24.46;80.71
17525;BME280;40431;52.198;9.902;2023-07-28T12:20:33;99776.78;;;24.37;81.31
17525;BME280;40431;52.198;9.902;2023-07-28T12:22:59;99761.22;;;24.36;81.92
17525;BME280;40431;52.198;9.902;2023-07-28T12:25:26;99758.31;;;24.51;82.36
17525;BME280;40431;52.198;9.902;2023-07-28T12:27:52;99770.34;;;24.65;78.82
17525;BME280;40431;52.198;9.902;2023-07-28T12:30:20;99769.28;;;24.66;79.85
17525;BME280;40431;52.198;9.902;2023-07-28T12:32:46;99766.63;;;24.86;78.39
17525;BME280;40431;52.198;9.902;2023-07-28T12:35:13;99772.63;;;24.96;77.25
17525;BME280;40431;52.198;9.902;2023-07-28T12:37:39;99767.94;;;24.97;76.61
17525;BME280;40431;52.198;9.902;2023-07-28T12:40:08;99770.69;;;24.97;75.58
17525;BME280;40431;52.198;9.902;2023-07-28T12:42:35;99780.56;;;25.06;74.91
17525;BME280;40431;52.198;9.902;2023-07-28T12:45:02;99783.13;;;25.01;74.05
17525;BME280;40431;52.198;9.902;2023-07-28T12:47:33;99774.63;;;25.16;74.74
17525;BME280;40431;52.198;9.902;2023-07-28T12:49:59;99777.78;;;25.06;74.98
17525;BME280;40431;52.198;9.902;2023-07-28T12:52:25;99778.19;;;25.03;75.86